Time;durP1;ratioP1;P1;durP2;ratioP2;P2;SDS_P1;SDS_P2;PMS_P1;PMS_P2;Temp;Humidity;BMP_temperature;BMP_pressure;BME280_temperature;BME280_humidity;BME280_pressure;Samples;Min_cycle;Max_cycle;Signal;HPM_P1;HPM_P2
2022/04/27 00:02:01;;;;;;;15.70;7.63;;;7.20;99.90;;;;;;5095052;28;20073;-74
2022/04/27 00:04:28;;;;;;;11.90;8.95;;;7.20;99.90;;;;;;5094418;28;20047;-75
2022/04/27 00:06:53;;;;;;;11.88;9.02;;;7.20;99.90;;;;;;5093538;28;20055;-75
2022/04/27 00:09:19;;;;;;;10.30;9.23;;;7.20;99.90;;;;;;5095121;28;20131;-75
2022/04/27 00:11:44;;;;;;;12.43;9.32;;;7.10;99.90;;;;;;5093550;28;20043;-75
2022/04/27 00:14:10;;;;;;;11.98;9.75;;;7.20;99.90;;;;;;5094198;28;20058;-75
2022/04/27 00:16:36;;;;;;;12.98;9.38;;;7.20;99.90;;;;;;5098793;28;20400;-75
2022/04/27 00:19:02;;;;;;;11.05;8.77;;;7.20;99.90;;;;;;5097221;28;20062;-75
2022/04/27 00:21:28;;;;;;;11.32;9.13;;;7.20;99.90;;;;;;5115521;28;20051;-75
2022/04/27 00:23:53;;;;;;;13.85;9.80;;;7.20;99.90;;;;;;5096930;28;20453;-75
2022/04/27 00:26:19;;;;;;;11.57;9.43;;;7.20;99.90;;;;;;5080648;28;20183;-74
2022/04/27 00:28:45;;;;;;;11.73;9.00;;;7.30;99.90;;;;;;5095523;28;20130;-74
2022/04/27 00:31:11;;;;;;;10.00;8.90;;;7.30;99.90;;;;;;5115151;28;20128;-75
2022/04/27 00:33:36;;;;;;;11.20;9.45;;;7.30;99.90;;;;;;5096650;28;20119;-75
2022/04/27 00:36:02;;;;;;;10.88;9.23;;;7.30;99.90;;;;;;5096959;28;20052;-75
2022/04/27 00:38:28;;;;;;;12.98;9.80;;;7.40;99.90;;;;;;5079937;28;20518;-75
2022/04/27 00:40:53;;;;;;;12.55;8.85;;;7.40;99.90;;;;;;5079629;28;20142;-75
2022/04/27 00:43:42;;;;;;;12.88;8.30;;;7.40;99.90;;;;;;5097032;28;20377;-75
2022/04/27 00:46:09;;;;;;;14.10;7.65;;;7.40;99.90;;;;;;5096825;28;20052;-75
2022/04/27 00:48:36;;;;;;;10.15;7.97;;;7.40;99.90;;;;;;5080204;28;20094;-75
2022/04/27 00:51:02;;;;;;;11.77;8.45;;;7.50;99.90;;;;;;5096827;28;20035;-75
2022/04/27 00:53:28;;;;;;;10.63;9.30;;;7.50;99.90;;;;;;5080087;28;20077;-75
2022/04/27 00:55:54;;;;;;;12.23;9.18;;;7.50;99.90;;;;;;5079221;28;20403;-75
2022/04/27 00:58:19;;;;;;;11.18;8.32;;;7.50;99.90;;;;;;5079597;28;20047;-75
2022/04/27 01:00:45;;;;;;;11.77;8.38;;;7.60;99.90;;;;;;5079584;28;20047;-75
2022/04/27 01:03:10;;;;;;;11.95;7.75;;;7.50;99.90;;;;;;5079472;28;20055;-75
2022/04/27 01:05:37;;;;;;;9.18;7.03;;;7.50;99.90;;;;;;5079737;28;20126;-75
2022/04/27 01:08:03;;;;;;;13.75;7.65;;;7.50;99.90;;;;;;5079398;28;20118;-75
2022/04/27 01:10:29;;;;;;;8.95;8.02;;;7.60;99.90;;;;;;5114385;28;20149;-75
2022/04/27 01:12:57;;;;;;;9.85;7.38;;;7.60;99.90;;;;;;5079252;28;20130;-75
2022/04/27 01:15:33;;;;;;;9.70;7.43;;;7.60;99.90;;;;;;5096206;28;20051;-75
2022/04/27 01:17:58;;;;;;;11.35;7.72;;;7.60;99.90;;;;;;5078583;28;20052;-75
2022/04/27 01:20:24;;;;;;;11.93;7.70;;;7.60;99.90;;;;;;5095978;28;20050;-75
2022/04/27 01:22:50;;;;;;;10.57;7.28;;;7.60;99.90;;;;;;5095668;28;20039;-75
2022/04/27 01:25:16;;;;;;;12.88;7.60;;;7.60;99.90;;;;;;5096044;28;20513;-75
2022/04/27 01:27:44;;;;;;;9.95;7.70;;;7.60;99.90;;;;;;5113674;28;20055;-75
2022/04/27 01:30:10;;;;;;;10.20;7.50;;;7.60;99.90;;;;;;5079063;28;20043;-75
2022/04/27 01:32:36;;;;;;;11.05;7.60;;;7.60;99.90;;;;;;5113992;28;20044;-75
2022/04/27 01:35:03;;;;;;;11.20;7.40;;;7.60;99.90;;;;;;5095706;28;20044;-75
2022/04/27 01:40:12;;;;;;;7.60;6.90;;;7.60;99.90;;;;;;5113517;28;20134;-75
2022/04/27 01:42:38;;;;;;;9.73;7.13;;;7.50;99.90;;;;;;5113848;28;20126;-75
2022/04/27 01:45:04;;;;;;;9.13;7.18;;;7.60;99.90;;;;;;5095070;28;20724;-75
2022/04/27 01:47:30;;;;;;;10.77;7.18;;;7.60;99.90;;;;;;5095802;28;20093;-75
2022/04/27 01:49:55;;;;;;;13.27;7.40;;;7.60;99.90;;;;;;5095086;28;20087;-75
2022/04/27 01:55:06;;;;;;;11.13;7.20;;;7.60;99.90;;;;;;5095149;28;20047;-75
2022/04/27 01:57:31;;;;;;;8.63;7.35;;;7.50;99.90;;;;;;5095637;28;20039;-76
2022/04/27 01:59:58;;;;;;;10.48;7.57;;;7.50;99.90;;;;;;5095078;28;20050;-75
2022/04/27 02:02:23;;;;;;;9.93;8.10;;;7.50;99.90;;;;;;5113512;28;20059;-75
2022/04/27 02:04:49;;;;;;;10.20;7.40;;;7.50;99.90;;;;;;5077979;28;20051;-75
2022/04/27 02:07:15;;;;;;;10.35;7.78;;;7.50;99.90;;;;;;5095175;28;20043;-75
2022/04/27 02:09:40;;;;;;;11.52;7.57;;;7.50;99.90;;;;;;5113177;28;20047;-76
2022/04/27 02:12:06;;;;;;;13.80;7.63;;;7.40;99.90;;;;;;5094805;28;20372;-75
2022/04/27 02:14:32;;;;;;;10.98;8.10;;;7.50;99.90;;;;;;5095034;28;20058;-76
2022/04/27 02:16:58;;;;;;;14.57;8.40;;;7.40;99.90;;;;;;5077853;28;20047;-75
2022/04/27 02:19:23;;;;;;;11.07;8.00;;;7.40;99.90;;;;;;5094985;28;20144;-75
2022/04/27 02:21:49;;;;;;;12.10;8.32;;;7.60;99.90;;;;;;5094848;28;20078;-81
2022/04/27 02:24:15;;;;;;;14.32;7.90;;;7.60;99.90;;;;;;5113345;28;20468;-75
2022/04/27 02:26:42;;;;;;;12.80;8.13;;;7.40;99.90;;;;;;5095095;28;20047;-75
2022/04/27 02:29:09;;;;;;;10.27;7.55;;;7.50;99.90;;;;;;5094711;28;20089;-75
2022/04/27 02:31:35;;;;;;;13.52;7.63;;;7.50;99.90;;;;;;5094615;28;20051;-75
2022/04/27 02:34:00;;;;;;;13.65;7.93;;;7.50;99.90;;;;;;5077850;28;20392;-75
2022/04/27 02:36:26;;;;;;;12.25;8.45;;;7.50;99.90;;;;;;5078253;28;20077;-76
2022/04/27 02:38:52;;;;;;;12.25;7.68;;;7.50;99.90;;;;;;5077861;28;20091;-79
2022/04/27 02:41:17;;;;;;;12.00;7.55;;;7.40;99.90;;;;;;5078205;28;20536;-74
2022/04/27 02:43:43;;;;;;;12.98;8.45;;;7.40;99.90;;;;;;5094654;28;20043;-75
2022/04/27 02:46:09;;;;;;;9.43;7.80;;;7.50;99.90;;;;;;5094309;28;20480;-75
2022/04/27 02:48:34;;;;;;;10.27;7.93;;;7.40;99.90;;;;;;5112923;28;20052;-75
2022/04/27 02:53:44;;;;;;;12.98;7.47;;;7.40;99.90;;;;;;5117226;28;20403;-75
2022/04/27 02:56:10;;;;;;;16.95;7.82;;;7.40;99.90;;;;;;5081573;28;20043;-75
2022/04/27 02:58:36;;;;;;;13.88;7.45;;;7.50;99.90;;;;;;5098787;28;20122;-75
2022/04/27 03:01:01;;;;;;;12.88;7.45;;;7.30;99.90;;;;;;5098696;28;20097;-76
2022/04/27 03:03:27;;;;;;;11.98;7.60;;;7.50;99.90;;;;;;5065409;28;20205;-75
2022/04/27 03:05:53;;;;;;;10.18;8.00;;;7.40;99.90;;;;;;5098586;28;20058;-75
2022/04/27 03:08:18;;;;;;;13.50;8.20;;;7.40;99.90;;;;;;5116627;28;20384;-74
2022/04/27 03:10:46;;;;;;;10.55;7.82;;;7.40;99.90;;;;;;5098677;28;20395;-74
2022/04/27 03:13:12;;;;;;;9.38;7.85;;;7.40;99.90;;;;;;5098217;28;20048;-75
2022/04/27 03:15:37;;;;;;;10.57;7.32;;;7.40;99.90;;;;;;5098592;28;20068;-75
2022/04/27 03:18:19;;;;;;;8.60;7.30;;;7.40;99.90;;;;;;5116288;28;20305;-77
2022/04/27 03:20:46;;;;;;;12.80;7.38;;;7.40;99.90;;;;;;5101033;28;20040;-75
2022/04/27 03:23:11;;;;;;;11.30;7.30;;;7.40;99.90;;;;;;5098382;28;20051;-75
2022/04/27 03:25:37;;;;;;;10.43;7.30;;;7.40;99.90;;;;;;5098659;28;20051;-75
2022/04/27 03:28:03;;;;;;;9.70;7.07;;;7.50;99.90;;;;;;5098280;28;20043;-76
2022/04/27 03:30:29;;;;;;;10.60;7.13;;;7.50;99.90;;;;;;5098481;28;20051;-75
2022/04/27 03:32:54;;;;;;;8.93;7.57;;;7.50;99.90;;;;;;5098598;28;20387;-76
2022/04/27 03:35:20;;;;;;;9.05;7.20;;;7.50;99.90;;;;;;5097874;28;20173;-75
2022/04/27 03:37:46;;;;;;;11.35;6.95;;;7.50;99.90;;;;;;5098448;28;20050;-75
2022/04/27 03:40:11;;;;;;;9.63;6.65;;;7.50;99.90;;;;;;5097692;28;20507;-76
2022/04/27 03:42:37;;;;;;;12.90;7.28;;;7.50;99.90;;;;;;5098189;28;20130;-77
2022/04/27 03:45:03;;;;;;;10.75;7.65;;;7.50;99.90;;;;;;5115755;28;20356;-77
2022/04/27 03:47:29;;;;;;;15.15;7.60;;;7.50;99.90;;;;;;5081288;28;20048;-76
2022/04/27 03:49:59;;;;;;;9.70;7.20;;;7.50;99.90;;;;;;5097997;28;20044;-77
2022/04/27 03:52:25;;;;;;;12.15;7.60;;;7.50;99.90;;;;;;5064716;28;20078;-76
2022/04/27 03:54:51;;;;;;;8.25;7.43;;;7.50;99.90;;;;;;5081214;28;20086;-75
2022/04/27 03:57:16;;;;;;;11.02;7.10;;;7.50;99.90;;;;;;5115445;28;20131;-76
2022/04/27 03:59:42;;;;;;;8.98;6.97;;;7.50;99.90;;;;;;5097857;28;20134;-75
2022/04/27 04:02:07;;;;;;;10.32;7.35;;;7.50;99.90;;;;;;5115257;28;20043;-76
2022/04/27 04:04:33;;;;;;;9.13;7.00;;;7.60;99.90;;;;;;5097909;28;20043;-75
2022/04/27 04:06:59;;;;;;;11.02;6.90;;;7.60;99.90;;;;;;5097670;28;20058;-74
2022/04/27 04:09:24;;;;;;;10.10;7.28;;;7.60;99.90;;;;;;5097341;28;20396;-75
2022/04/27 04:11:50;;;;;;;10.02;6.97;;;7.60;99.90;;;;;;5081002;28;20369;-75
2022/04/27 04:14:15;;;;;;;13.02;6.82;;;7.70;99.90;;;;;;5115405;28;20064;-75
2022/04/27 04:16:41;;;;;;;10.57;6.72;;;7.60;99.90;;;;;;5097470;28;20064;-75
2022/04/27 04:19:07;;;;;;;8.60;6.38;;;7.70;99.90;;;;;;5097138;28;20480;-75
2022/04/27 04:21:33;;;;;;;8.70;6.82;;;7.70;99.90;;;;;;5115508;28;20073;-77
2022/04/27 04:23:59;;;;;;;9.93;6.35;;;7.70;99.90;;;;;;5097492;28;20036;-75
2022/04/27 04:29:08;;;;;;;8.82;6.13;;;7.70;99.90;;;;;;5096893;28;20047;-76
2022/04/27 04:31:34;;;;;;;11.25;6.30;;;7.70;99.90;;;;;;5115286;28;20435;-75
2022/04/27 04:33:59;;;;;;;9.05;6.32;;;7.70;99.90;;;;;;5114948;28;20503;-77
2022/04/27 04:36:25;;;;;;;11.77;6.60;;;7.70;99.90;;;;;;5096823;28;20090;-76
2022/04/27 04:38:51;;;;;;;7.85;6.93;;;7.70;99.90;;;;;;5097182;28;20491;-75
2022/04/27 04:41:16;;;;;;;7.90;6.45;;;7.80;99.90;;;;;;5096890;28;20497;-75
2022/04/27 04:43:42;;;;;;;10.88;6.55;;;7.70;99.90;;;;;;5080326;28;20132;-75
2022/04/27 04:46:09;;;;;;;8.60;6.05;;;7.70;99.90;;;;;;5097054;28;20039;-75
2022/04/27 04:48:34;;;;;;;8.40;5.88;;;7.70;99.90;;;;;;5097171;28;20051;-75
2022/04/27 04:51:00;;;;;;;8.77;6.20;;;7.70;99.90;;;;;;5079981;28;20380;-74
2022/04/27 04:53:25;;;;;;;10.15;6.40;;;7.80;99.90;;;;;;5114819;28;20434;-75
2022/04/27 04:55:51;;;;;;;10.93;6.65;;;7.80;99.90;;;;;;5114767;28;20044;-74
2022/04/27 04:58:17;;;;;;;8.30;6.18;;;7.80;99.90;;;;;;5096466;28;20449;-76
2022/04/27 05:00:43;;;;;;;8.18;6.00;;;7.80;99.90;;;;;;5096882;28;20051;-75
2022/04/27 05:03:08;;;;;;;10.50;5.90;;;7.80;99.90;;;;;;5080151;28;20062;-76
2022/04/27 05:05:37;;;;;;;8.05;6.18;;;7.80;99.90;;;;;;5095936;28;20146;-75
2022/04/27 05:08:05;;;;;;;7.22;6.22;;;7.80;99.90;;;;;;5080046;28;20407;-76
2022/04/27 05:10:31;;;;;;;8.38;5.85;;;7.80;99.90;;;;;;5095910;28;20454;-76
2022/04/27 05:12:56;;;;;;;9.68;6.70;;;7.80;99.90;;;;;;5096623;28;20433;-74
2022/04/27 05:15:22;;;;;;;9.90;6.30;;;7.90;99.90;;;;;;5078263;28;20051;-75
2022/04/27 05:17:48;;;;;;;9.90;6.75;;;7.90;99.90;;;;;;5096114;28;20054;-75
2022/04/27 05:20:13;;;;;;;8.30;5.65;;;7.90;99.90;;;;;;5113841;28;20055;-76
2022/04/27 05:22:39;;;;;;;10.70;5.45;;;7.90;99.90;;;;;;5096189;28;20078;-75
2022/04/27 05:25:09;;;;;;;9.38;5.32;;;7.90;99.90;;;;;;5114354;28;20047;-75
2022/04/27 05:27:35;;;;;;;8.07;5.32;;;8.00;99.90;;;;;;5096162;28;20040;-75
2022/04/27 05:32:46;;;;;;;9.23;5.45;;;8.00;99.90;;;;;;5082129;28;20047;-74
2022/04/27 05:35:14;;;;;;;7.68;5.28;;;8.00;99.90;;;;;;5095911;28;20044;-86
2022/04/27 05:37:40;;;;;;;8.20;4.70;;;8.10;99.90;;;;;;5079993;28;20040;-80
2022/04/27 05:40:06;;;;;;;8.35;5.30;;;8.10;99.90;;;;;;5078771;28;20097;-79
2022/04/27 05:42:32;;;;;;;8.73;4.95;;;8.10;99.90;;;;;;5062155;28;20047;-75
2022/04/27 05:44:58;;;;;;;6.55;4.95;;;8.20;99.90;;;;;;5079210;28;20437;-76
2022/04/27 05:47:25;;;;;;;7.32;4.68;;;8.20;99.90;;;;;;5078666;28;20138;-75
2022/04/27 05:49:51;;;;;;;93.75;8.90;;;8.20;99.90;;;;;;5078926;28;20126;-75
2022/04/27 05:52:17;;;;;;;8.60;5.13;;;8.30;99.90;;;;;;5078958;28;20126;-76
2022/04/27 05:54:43;;;;;;;7.50;4.97;;;8.30;99.90;;;;;;5095743;28;20083;-78
2022/04/27 05:57:08;;;;;;;10.13;5.22;;;8.30;99.90;;;;;;5078971;28;20455;-79
2022/04/27 05:59:34;;;;;;;8.93;4.72;;;8.40;99.90;;;;;;5095300;28;20083;-76
2022/04/27 06:01:59;;;;;;;8.45;4.22;;;8.40;99.90;;;;;;5078772;28;20126;-78
2022/04/27 06:04:26;;;;;;;16.40;3.92;;;8.40;99.90;;;;;;5095176;28;20051;-78
2022/04/27 06:06:53;;;;;;;9.05;3.95;;;8.50;99.90;;;;;;5095502;28;20048;-79
2022/04/27 06:09:18;;;;;;;5.65;3.38;;;8.60;99.90;;;;;;5078748;28;20430;-79
2022/04/27 06:11:44;;;;;;;4.03;2.10;;;8.50;99.90;;;;;;5078176;28;20043;-78
2022/04/27 06:14:09;;;;;;;5.55;2.15;;;8.60;99.90;;;;;;5078628;28;20392;-77
2022/04/27 06:16:35;;;;;;;6.85;2.75;;;8.60;99.40;;;;;;5077883;28;20039;-77
2022/04/27 06:19:01;;;;;;;7.28;3.25;;;8.60;99.30;;;;;;5078529;28;20063;-78
2022/04/27 06:21:31;;;;;;;5.10;3.30;;;8.80;99.60;;;;;;5078207;28;20062;-78
2022/04/27 06:23:58;;;;;;;4.15;3.25;;;8.80;99.80;;;;;;5078967;28;20055;-74
2022/04/27 06:26:23;;;;;;;2.95;2.30;;;8.80;99.90;;;;;;5078183;28;20044;-79
2022/04/27 06:28:49;;;;;;;5.03;2.90;;;8.90;99.50;;;;;;5078422;28;20040;-75
2022/04/27 06:31:14;;;;;;;4.65;3.50;;;8.90;99.50;;;;;;5094752;28;20475;-75
2022/04/27 06:33:40;;;;;;;6.18;4.10;;;8.90;99.40;;;;;;5094751;28;20047;-77
2022/04/27 06:36:06;;;;;;;4.53;3.22;;;9.00;99.40;;;;;;5061541;28;20047;-76
2022/04/27 06:38:31;;;;;;;4.65;3.60;;;9.00;99.20;;;;;;5078172;28;20130;-77
2022/04/27 06:40:57;;;;;;;6.63;3.83;;;9.10;98.70;;;;;;5078315;28;20040;-79
2022/04/27 06:43:23;;;;;;;5.95;3.78;;;9.10;98.80;;;;;;5078262;28;20081;-77
2022/04/27 06:45:49;;;;;;;5.25;3.72;;;9.10;98.70;;;;;;5077621;28;20559;-77
2022/04/27 06:48:14;;;;;;;7.80;3.60;;;9.20;98.40;;;;;;5094934;28;20126;-75
2022/04/27 06:50:40;;;;;;;3.63;3.10;;;9.20;98.30;;;;;;5112635;28;20043;-75
2022/04/27 06:53:05;;;;;;;4.72;3.47;;;9.30;97.90;;;;;;5094939;28;20054;-76
2022/04/27 06:55:34;;;;;;;7.88;3.00;;;9.20;97.70;;;;;;5094786;28;20052;-85
2022/04/27 06:57:59;;;;;;;4.30;3.13;;;9.30;97.10;;;;;;5078690;28;20048;-78
2022/04/27 07:00:25;;;;;;;3.15;2.40;;;9.30;96.80;;;;;;5078272;28;20070;-80
2022/04/27 07:02:51;;;;;;;6.72;2.88;;;9.30;95.90;;;;;;5078141;28;20108;-80
2022/04/27 07:05:17;;;;;;;4.72;2.60;;;9.30;95.60;;;;;;5061452;28;20458;-79
2022/04/27 07:07:47;;;;;;;5.65;2.30;;;9.40;95.40;;;;;;5077653;28;20062;-80
2022/04/27 07:10:13;;;;;;;4.97;2.50;;;9.50;95.10;;;;;;5078138;28;20437;-79
2022/04/27 07:12:39;;;;;;;2.58;2.10;;;9.50;94.80;;;;;;5060947;28;20054;-80
2022/04/27 07:15:05;;;;;;;3.28;2.53;;;9.50;94.50;;;;;;5078026;28;20040;-78
2022/04/27 07:17:31;;;;;;;4.45;2.47;;;9.50;94.30;;;;;;5094320;28;20055;-79
2022/04/27 07:19:57;;;;;;;7.55;2.50;;;9.60;93.80;;;;;;5078020;28;20051;-80
2022/04/27 07:22:22;;;;;;;5.90;2.13;;;9.60;93.20;;;;;;5094712;28;20040;-75
2022/04/27 07:24:49;;;;;;;5.45;2.15;;;9.70;92.60;;;;;;5093946;28;20365;-75
2022/04/27 07:27:16;;;;;;;4.38;2.20;;;9.70;92.50;;;;;;5094696;28;20089;-76
2022/04/27 07:29:42;;;;;;;3.33;2.20;;;9.80;92.20;;;;;;5077456;28;20055;-79
2022/04/27 07:32:07;;;;;;;6.85;2.10;;;9.90;91.60;;;;;;5094055;28;20046;-76
2022/04/27 07:34:33;;;;;;;5.55;2.08;;;10.00;90.80;;;;;;5077072;28;20046;-77
2022/04/27 07:37:01;;;;;;;4.50;1.88;;;10.00;90.00;;;;;;5077487;28;20131;-77
2022/04/27 07:39:26;;;;;;;5.78;2.20;;;10.10;89.60;;;;;;5081688;28;20406;-76
2022/04/27 07:41:52;;;;;;;3.22;2.25;;;10.10;89.10;;;;;;5080785;28;20053;-78
2022/04/27 07:44:18;;;;;;;4.30;2.08;;;10.20;89.00;;;;;;5081276;28;20044;-74
2022/04/27 07:46:47;;;;;;;2.92;2.08;;;10.30;89.50;;;;;;5097897;28;20134;-74
2022/04/27 07:49:16;;;;;;;5.07;2.17;;;10.30;89.30;;;;;;5098286;28;20120;-75
2022/04/27 07:51:42;;;;;;;5.22;2.20;;;10.30;87.90;;;;;;5115701;28;20050;-73
2022/04/27 07:54:08;;;;;;;5.40;2.08;;;10.30;86.40;;;;;;5098088;28;20047;-74
2022/04/27 07:56:33;;;;;;;5.20;2.00;;;10.40;86.20;;;;;;5097628;28;20134;-78
2022/04/27 07:59:03;;;;;;;2.92;1.60;;;10.50;86.60;;;;;;5097589;28;20047;-76
2022/04/27 08:01:30;;;;;;;5.50;2.20;;;10.50;86.40;;;;;;5098132;28;20036;-74
2022/04/27 08:03:55;;;;;;;5.53;1.92;;;10.60;86.30;;;;;;5096868;28;20472;-74
2022/04/27 08:06:21;;;;;;;6.47;2.33;;;10.60;86.00;;;;;;5097512;28;20101;-74
2022/04/27 08:08:47;;;;;;;6.53;1.88;;;10.70;85.20;;;;;;5097241;28;20062;-75
2022/04/27 08:11:13;;;;;;;4.15;2.03;;;10.70;83.50;;;;;;5097446;28;20127;-75
2022/04/27 08:13:39;;;;;;;4.93;1.98;;;10.70;83.80;;;;;;5097122;28;20062;-75
2022/04/27 08:16:07;;;;;;;2.75;1.73;;;10.80;82.60;;;;;;5080334;28;20039;-74
2022/04/27 08:18:35;;;;;;;4.65;2.08;;;10.80;82.10;;;;;;5096542;28;20081;-78
2022/04/27 08:21:14;;;;;;;7.60;1.80;;;10.80;80.60;;;;;;5097298;28;20063;-75
2022/04/27 08:23:40;;;;;;;6.70;1.88;;;10.90;80.40;;;;;;5081893;28;20051;-79
2022/04/27 08:26:06;;;;;;;4.00;1.90;;;10.90;80.20;;;;;;5097141;28;20476;-77
2022/04/27 08:28:32;;;;;;;5.60;2.17;;;10.90;80.50;;;;;;5080559;28;20083;-80
2022/04/27 08:30:59;;;;;;;11.73;1.95;;;11.00;80.60;;;;;;5079646;28;20444;-79
2022/04/27 08:33:26;;;;;;;7.72;2.22;;;11.00;78.50;;;;;;5079768;28;20503;-77
2022/04/27 08:35:55;;;;;;;8.55;2.25;;;11.00;76.70;;;;;;5079317;28;20052;-80
2022/04/27 08:38:27;;;;;;;7.70;1.83;;;11.00;75.30;;;;;;5081847;28;20066;-78
2022/04/27 08:40:52;;;;;;;3.90;1.73;;;11.00;75.60;;;;;;5063316;28;20075;-78
2022/04/27 08:43:18;;;;;;;6.35;2.22;;;11.00;76.40;;;;;;5079958;28;20094;-78
2022/04/27 08:45:44;;;;;;;5.50;1.70;;;11.00;76.50;;;;;;5079557;28;20096;-79
2022/04/27 08:48:11;;;;;;;6.00;2.03;;;11.00;76.60;;;;;;5079923;28;20372;-79
2022/04/27 08:50:37;;;;;;;7.50;1.98;;;11.10;76.80;;;;;;5078894;28;20100;-78
2022/04/27 08:53:02;;;;;;;7.53;1.92;;;11.10;77.00;;;;;;5079547;28;20043;-79
2022/04/27 08:55:28;;;;;;;6.82;2.42;;;11.10;77.70;;;;;;5096801;28;20039;-77
2022/04/27 08:58:16;;;;;;;7.13;2.20;;;11.10;77.50;;;;;;5079269;28;20048;-76
2022/04/27 09:00:43;;;;;;;7.63;2.95;;;11.10;76.10;;;;;;5096023;28;20048;-78
2022/04/27 09:03:26;;;;;;;4.35;2.20;;;11.20;78.20;;;;;;5096339;28;20047;-73
2022/04/27 09:05:59;;;;;;;3.97;2.47;;;11.20;78.40;;;;;;5114202;28;20126;-73
2022/04/27 09:08:26;;;;;;;7.78;2.35;;;11.20;78.50;;;;;;5096747;28;20047;-72
2022/04/27 09:11:17;;;;;;;5.47;2.30;;;11.20;78.60;;;;;;5096177;28;20044;-73
2022/04/27 09:13:53;;;;;;;6.53;2.10;;;11.30;76.30;;;;;;5097378;28;20048;-73
2022/04/27 09:16:21;;;;;;;7.10;2.22;;;11.30;79.40;;;;;;5096735;28;20581;-73
2022/04/27 09:22:01;;;;;;;6.35;2.00;;;11.40;76.40;;;;;;5099329;28;20136;-73
2022/04/27 09:24:28;;;;;;;5.38;2.42;;;11.40;75.70;;;;;;5114714;28;20044;-73
2022/04/27 09:27:03;;;;;;;5.43;2.00;;;11.50;77.20;;;;;;5095824;28;20058;-73
2022/04/27 09:29:29;;;;;;;7.22;2.38;;;11.40;76.10;;;;;;5096319;28;20095;-72
2022/04/27 09:31:56;;;;;;;4.90;2.72;;;11.40;75.90;;;;;;5095463;28;20044;-73
2022/04/27 09:34:27;;;;;;;8.23;2.75;;;11.50;76.30;;;;;;5096134;28;20090;-72
2022/04/27 09:37:16;;;;;;;10.50;2.95;;;11.40;77.30;;;;;;5096508;28;20065;-72
2022/04/27 09:39:43;;;;;;;12.30;2.92;;;11.40;74.90;;;;;;5081049;28;20047;-73
2022/04/27 09:42:10;;;;;;;10.40;2.60;;;11.40;79.60;;;;;;5095500;28;20043;-72
2022/04/27 09:44:37;;;;;;;10.20;3.33;;;11.50;81.30;;;;;;5095626;28;20086;-73
2022/04/27 09:47:03;;;;;;;8.63;2.42;;;11.50;83.10;;;;;;5113530;28;20052;-73
2022/04/27 09:49:31;;;;;;;15.70;3.38;;;11.50;83.30;;;;;;5079175;28;20070;-73
2022/04/27 09:51:57;;;;;;;9.20;2.83;;;11.50;83.00;;;;;;5095238;28;20141;-72
2022/04/27 09:54:24;;;;;;;10.82;2.80;;;11.50;82.60;;;;;;5095730;28;20043;-73
2022/04/27 09:56:51;;;;;;;14.40;2.50;;;11.50;82.10;;;;;;5113302;28;20509;-74
2022/04/27 09:59:18;;;;;;;8.70;2.53;;;11.50;82.60;;;;;;5113420;28;20055;-72
2022/04/27 10:01:44;;;;;;;15.38;2.97;;;11.50;82.90;;;;;;5078675;28;20043;-72
2022/04/27 10:04:10;;;;;;;8.73;2.53;;;11.50;82.60;;;;;;5095145;28;20047;-73
2022/04/27 10:06:36;;;;;;;9.90;2.60;;;11.40;82.70;;;;;;5078627;28;20036;-72
2022/04/27 10:09:03;;;;;;;13.27;2.78;;;11.50;82.40;;;;;;5078310;28;20055;-73
2022/04/27 10:11:29;;;;;;;10.57;3.10;;;11.50;81.80;;;;;;5095259;28;20500;-72
2022/04/27 10:13:55;;;;;;;12.70;2.88;;;11.50;81.50;;;;;;5095071;28;20039;-73
2022/04/27 10:16:21;;;;;;;12.60;2.80;;;11.50;81.70;;;;;;5113314;28;20094;-73
2022/04/27 10:18:47;;;;;;;11.82;2.75;;;11.50;81.80;;;;;;5095179;28;20113;-73
2022/04/27 10:21:14;;;;;;;11.55;2.78;;;11.60;81.00;;;;;;5112883;28;20050;-72
2022/04/27 10:23:43;;;;;;;10.48;2.78;;;11.60;81.30;;;;;;5078717;28;20059;-73
2022/04/27 10:26:16;;;;;;;9.32;2.75;;;11.70;81.30;;;;;;5112862;28;20108;-73
2022/04/27 10:28:53;;;;;;;12.57;2.88;;;11.70;80.20;;;;;;5096178;28;20048;-73
2022/04/27 10:31:46;;;;;;;7.93;2.67;;;11.70;78.50;;;;;;5094789;28;20039;-73
2022/04/27 10:34:19;;;;;;;10.55;2.78;;;11.80;80.00;;;;;;5112727;28;20051;-72
2022/04/27 10:36:51;;;;;;;11.57;2.50;;;11.80;81.80;;;;;;5113305;28;20122;-72
2022/04/27 10:39:19;;;;;;;9.90;2.28;;;12.00;81.90;;;;;;5094952;28;20050;-72
2022/04/27 10:41:55;;;;;;;14.63;2.95;;;12.10;79.70;;;;;;5078558;28;20391;-72
2022/04/27 10:44:21;;;;;;;15.35;2.80;;;12.10;77.80;;;;;;5112806;28;20047;-73
2022/04/27 10:46:47;;;;;;;10.63;2.30;;;12.20;78.90;;;;;;5094894;28;20396;-73
2022/04/27 10:49:25;;;;;;;11.60;2.20;;;12.20;79.50;;;;;;5094607;28;20051;-73
2022/04/27 10:52:05;;;;;;;11.23;2.10;;;12.20;77.80;;;;;;5112941;28;20094;-72
2022/04/27 10:54:34;;;;;;;8.27;2.45;;;12.20;76.50;;;;;;5078579;28;20051;-72
2022/04/27 10:57:15;;;;;;;8.13;2.50;;;12.20;77.00;;;;;;5112369;28;20048;-73
2022/04/27 10:59:59;;;;;;;10.98;2.42;;;12.30;74.90;;;;;;5094619;28;20050;-73
2022/04/27 11:02:41;;;;;;;10.90;2.53;;;12.30;75.40;;;;;;5095194;28;20117;-73
2022/04/27 11:05:13;;;;;;;7.85;2.28;;;12.40;76.20;;;;;;5094670;28;20131;-73
2022/04/27 11:07:56;;;;;;;7.63;2.35;;;12.50;75.50;;;;;;5112642;28;20488;-72
2022/04/27 11:10:24;;;;;;;10.43;2.20;;;12.60;74.60;;;;;;5094400;28;20043;-72
2022/04/27 11:12:51;;;;;;;9.68;2.20;;;12.60;75.10;;;;;;5096461;28;20054;-73
2022/04/27 11:15:25;;;;;;;11.23;2.38;;;12.70;73.90;;;;;;5081565;28;20127;-73
2022/04/27 11:18:01;;;;;;;6.97;2.55;;;12.60;72.70;;;;;;5081442;28;20496;-73
2022/04/27 11:20:30;;;;;;;15.32;3.05;;;12.70;73.00;;;;;;5098176;28;20563;-73
2022/04/27 11:22:56;;;;;;;12.57;2.40;;;12.70;73.50;;;;;;5117032;28;20048;-73
2022/04/27 11:25:40;;;;;;;11.43;2.50;;;12.70;73.20;;;;;;5098131;28;20039;-73
2022/04/27 11:28:06;;;;;;;7.93;2.08;;;12.80;72.30;;;;;;5116113;28;20040;-73
2022/04/27 11:30:32;;;;;;;8.30;2.00;;;12.80;72.90;;;;;;5080901;28;20040;-73
2022/04/27 11:32:58;;;;;;;9.95;2.25;;;12.90;72.10;;;;;;5098227;28;20052;-73
2022/04/27 11:35:25;;;;;;;8.00;2.50;;;13.00;70.90;;;;;;5098047;28;20086;-73
2022/04/27 11:37:54;;;;;;;10.93;2.65;;;13.00;70.60;;;;;;5098334;28;20052;-73
2022/04/27 11:40:25;;;;;;;7.95;2.20;;;13.00;70.50;;;;;;5116132;28;20043;-73
2022/04/27 11:42:51;;;;;;;;;;;13.00;70.40;;;;;;5099284;28;20043;-73
2022/04/27 11:45:21;;;;;;;5.20;2.05;;;13.10;68.40;;;;;;5064407;28;19919;-73
2022/04/27 11:48:09;;;;;;;8.02;2.15;;;13.10;69.00;;;;;;5116405;28;20050;-73
2022/04/27 11:50:36;;;;;;;8.90;1.73;;;13.20;68.90;;;;;;5081401;28;20047;-74
2022/04/27 11:53:03;;;;;;;8.40;2.20;;;13.30;69.20;;;;;;5116267;28;20051;-73
2022/04/27 11:55:30;;;;;;;10.35;1.70;;;13.40;67.90;;;;;;5097994;28;20050;-73
2022/04/27 11:57:56;;;;;;;12.75;3.13;;;13.50;66.00;;;;;;5064386;28;20430;-73
2022/04/27 12:00:22;;;;;;;6.40;1.58;;;13.40;64.90;;;;;;5115093;28;20047;-73
2022/04/27 12:02:48;;;;;;;6.00;1.52;;;13.50;65.40;;;;;;5097969;28;20047;-73
2022/04/27 12:05:15;;;;;;;8.13;1.63;;;13.50;64.30;;;;;;5097594;28;20135;-73
2022/04/27 12:07:41;;;;;;;7.40;1.85;;;13.40;62.80;;;;;;5098089;28;20051;-73
2022/04/27 12:10:14;;;;;;;5.72;1.88;;;13.30;62.80;;;;;;5080936;28;20039;-77
2022/04/27 12:12:40;;;;;;;3.97;1.73;;;13.30;63.80;;;;;;5097786;28;20051;-73
2022/04/27 12:15:15;;;;;;;8.93;2.15;;;13.30;63.80;;;;;;5081066;28;20089;-73
2022/04/27 12:17:56;;;;;;;10.73;2.50;;;13.40;63.30;;;;;;5097509;28;20104;-73
2022/04/27 12:20:22;;;;;;;7.75;2.15;;;13.50;63.10;;;;;;5115037;28;20487;-73
2022/04/27 12:22:52;;;;;;;7.45;2.20;;;13.50;61.90;;;;;;5097199;28;20395;-73
2022/04/27 12:25:18;;;;;;;11.48;2.28;;;13.60;61.40;;;;;;5097127;28;20101;-73
2022/04/27 12:27:44;;;;;;;7.10;1.77;;;13.60;62.50;;;;;;5115546;28;20475;-73
2022/04/27 12:30:10;;;;;;;7.45;1.92;;;13.50;62.00;;;;;;5097291;28;20164;-75
2022/04/27 12:32:36;;;;;;;7.75;2.17;;;13.50;61.80;;;;;;5080539;28;20129;-73
2022/04/27 12:37:54;;;;;;;4.90;1.83;;;13.50;60.50;;;;;;5099858;28;20154;-73
2022/04/27 12:40:20;;;;;;;6.75;1.90;;;13.40;61.50;;;;;;5114795;28;20039;-73
2022/04/27 12:43:00;;;;;;;8.15;2.95;;;13.40;62.00;;;;;;5115225;28;20052;-73
2022/04/27 12:45:26;;;;;;;8.35;1.90;;;13.40;61.80;;;;;;5096318;28;20051;-73
2022/04/27 12:47:51;;;;;;;9.50;2.55;;;13.30;62.70;;;;;;5114583;28;20091;-73
2022/04/27 12:50:17;;;;;;;8.43;2.42;;;13.20;61.80;;;;;;5114740;28;20047;-73
2022/04/27 12:52:45;;;;;;;6.90;2.20;;;13.20;62.60;;;;;;5097092;28;20479;-73
2022/04/27 12:55:12;;;;;;;9.55;2.38;;;13.20;63.20;;;;;;5115126;28;20036;-73
2022/04/27 12:57:47;;;;;;;5.88;2.40;;;13.20;63.50;;;;;;5079432;28;20051;-73
2022/04/27 13:00:13;;;;;;;9.55;2.53;;;13.20;63.70;;;;;;5115042;28;20048;-73
2022/04/27 13:02:39;;;;;;;6.72;2.30;;;13.10;64.20;;;;;;5114922;28;20047;-73
2022/04/27 13:05:05;;;;;;;8.35;2.47;;;13.10;63.50;;;;;;5096798;28;20042;-73
2022/04/27 13:07:31;;;;;;;9.30;2.53;;;13.10;63.60;;;;;;5114551;28;20420;-74
2022/04/27 13:12:41;;;;;;;9.63;2.92;;;13.20;65.30;;;;;;5114299;28;20054;-73